createdAt,value
2018-11-05T08:00:53.806Z,6.90
2018-11-05T08:06:11.560Z,8.70
2018-11-05T08:16:43.449Z,8.90
2018-11-05T08:21:57.083Z,9.10
2018-11-05T08:27:11.973Z,9.30
2018-11-05T08:42:47.200Z,9.50
2018-11-05T08:47:58.985Z,10.00
2018-11-05T08:53:11.965Z,10.10
2018-11-05T08:58:31.768Z,10.20
2018-11-05T09:03:41.829Z,10.30
2018-11-05T09:08:59.711Z,10.30
2018-11-05T09:14:08.084Z,10.40
2018-11-05T09:19:21.210Z,10.40
2018-11-05T09:24:32.316Z,10.60
2018-11-05T09:29:46.062Z,10.70
2018-11-05T09:34:54.794Z,10.80
2018-11-05T09:40:06.797Z,10.80
2018-11-05T09:45:12.486Z,11.00
2018-11-05T09:50:21.515Z,11.10
2018-11-05T09:55:30.942Z,11.30
2018-11-05T10:00:37.335Z,11.50
2018-11-05T10:05:44.079Z,11.60
2018-11-05T10:10:47.573Z,11.90
2018-11-05T10:15:51.164Z,12.00
2018-11-05T10:20:57.687Z,12.10
2018-11-05T10:25:57.785Z,12.10
2018-11-05T10:31:05.654Z,12.10
2018-11-05T10:36:21.039Z,12.10
2018-11-05T10:41:23.434Z,12.10
2018-11-05T10:46:38.772Z,12.10
2018-11-05T10:51:40.399Z,12.00
2018-11-05T10:56:44.042Z,12.10
2018-11-05T11:01:51.170Z,12.20
2018-11-05T11:07:00.645Z,12.30
2018-11-05T11:12:03.083Z,12.30
2018-11-05T11:17:03.618Z,12.30
2018-11-05T11:22:04.982Z,12.30
2018-11-05T11:27:10.075Z,12.40
2018-11-05T11:32:18.879Z,12.40
2018-11-05T11:37:19.093Z,12.40
2018-11-05T11:42:20.621Z,12.50
2018-11-05T11:47:21.731Z,12.70
2018-11-05T11:52:29.298Z,12.80
2018-11-05T11:57:26.775Z,13.00
2018-11-05T12:02:29.571Z,13.00
2018-11-05T12:07:29.243Z,13.10
2018-11-05T12:12:36.756Z,13.10
2018-11-05T12:17:40.314Z,13.20
2018-11-05T12:22:38.289Z,13.20
2018-11-05T12:27:36.939Z,13.20
2018-11-05T12:32:35.164Z,13.30
2018-11-05T12:37:33.985Z,13.40
2018-11-05T12:42:32.187Z,13.50
2018-11-05T12:47:32.899Z,13.50
2018-11-05T12:52:28.933Z,13.50
2018-11-05T12:57:27.631Z,13.60
2018-11-05T13:02:28.059Z,13.60
2018-11-05T13:07:25.873Z,13.60
2018-11-05T13:12:24.773Z,13.80
2018-11-05T13:17:22.733Z,13.80
2018-11-05T13:22:18.824Z,13.90
2018-11-05T13:27:15.009Z,14.10
2018-11-05T13:32:16.208Z,14.20
2018-11-05T13:37:12.205Z,14.00
2018-11-05T13:42:08.542Z,14.10
2018-11-05T13:47:09.356Z,14.10
2018-11-05T13:52:07.699Z,13.90
2018-11-05T13:57:07.247Z,13.80
2018-11-05T14:02:05.555Z,13.70
2018-11-05T14:07:04.222Z,13.70
2018-11-05T14:12:04.925Z,13.80
2018-11-05T14:17:02.670Z,13.70
2018-11-05T14:22:01.033Z,13.70
2018-11-05T14:26:59.359Z,13.70
2018-11-05T14:31:59.873Z,13.80
2018-11-05T14:36:59.367Z,13.80
2018-11-05T14:41:57.926Z,13.90
2018-11-05T14:46:56.830Z,13.90
2018-11-05T14:51:55.557Z,13.90
2018-11-05T14:57:00.059Z,13.90
2018-11-05T15:01:57.690Z,13.80
2018-11-05T15:07:05.490Z,13.70
2018-11-05T15:12:00.527Z,13.70
2018-11-05T15:16:59.283Z,13.70
2018-11-05T15:21:58.285Z,13.60
2018-11-05T15:27:00.517Z,13.50
2018-11-05T15:31:59.508Z,13.40
2018-11-05T15:36:59.238Z,13.20
2018-11-05T15:41:59.949Z,13.10
2018-11-05T15:47:01.559Z,13.00
2018-11-05T15:52:05.215Z,12.80
2018-11-05T15:57:11.259Z,12.70
